sensor_id;sensor_type;location;lat;lon;timestamp;P1;durP1;ratioP1;P2;durP2;ratioP2
6898;SDS011;3488;42.616;23.350;2023-04-23T00:00:16;3.10;;;2.97;;
6898;SDS011;3488;42.616;23.350;2023-04-23T00:02:44;3.70;;;3.42;;
6898;SDS011;3488;42.616;23.350;2023-04-23T00:05:14;3.47;;;3.22;;
6898;SDS011;3488;42.616;23.350;2023-04-23T00:07:41;6.18;;;4.13;;
6898;SDS011;3488;42.616;23.350;2023-04-23T00:10:09;3.30;;;3.00;;
6898;SDS011;3488;42.616;23.350;2023-04-23T00:12:38;3.15;;;2.90;;
6898;SDS011;3488;42.616;23.350;2023-04-23T00:15:06;3.63;;;3.33;;
6898;SDS011;3488;42.616;23.350;2023-04-23T00:17:34;4.38;;;3.38;;
6898;SDS011;3488;42.616;23.350;2023-04-23T00:20:01;4.05;;;3.75;;
6898;SDS011;3488;42.616;23.350;2023-04-23T00:22:28;4.10;;;3.53;;
6898;SDS011;3488;42.616;23.350;2023-04-23T00:24:54;4.13;;;3.67;;
6898;SDS011;3488;42.616;23.350;2023-04-23T00:27:21;3.97;;;3.67;;
6898;SDS011;3488;42.616;23.350;2023-04-23T00:29:50;4.32;;;3.25;;
6898;SDS011;3488;42.616;23.350;2023-04-23T00:32:17;3.55;;;3.22;;
6898;SDS011;3488;42.616;23.350;2023-04-23T00:34:44;4.13;;;3.25;;
6898;SDS011;3488;42.616;23.350;2023-04-23T00:37:13;4.72;;;3.50;;
6898;SDS011;3488;42.616;23.350;2023-04-23T00:39:40;4.10;;;3.80;;
6898;SDS011;3488;42.616;23.350;2023-04-23T00:42:07;3.60;;;3.40;;
6898;SDS011;3488;42.616;23.350;2023-04-23T00:44:36;3.97;;;3.53;;
6898;SDS011;3488;42.616;23.350;2023-04-23T00:47:05;4.38;;;4.07;;
6898;SDS011;3488;42.616;23.350;2023-04-23T00:49:33;3.58;;;3.38;;
6898;SDS011;3488;42.616;23.350;2023-04-23T00:52:00;4.85;;;3.70;;
6898;SDS011;3488;42.616;23.350;2023-04-23T00:54:28;7.90;;;4.28;;
6898;SDS011;3488;42.616;23.350;2023-04-23T00:56:55;4.75;;;4.43;;
6898;SDS011;3488;42.616;23.350;2023-04-23T00:59:23;4.55;;;3.63;;
6898;SDS011;3488;42.616;23.350;2023-04-23T01:01:51;5.97;;;3.80;;
6898;SDS011;3488;42.616;23.350;2023-04-23T01:04:19;3.63;;;3.35;;
6898;SDS011;3488;42.616;23.350;2023-04-23T01:06:48;4.32;;;3.80;;
6898;SDS011;3488;42.616;23.350;2023-04-23T01:09:15;8.68;;;4.40;;
6898;SDS011;3488;42.616;23.350;2023-04-23T01:11:43;5.10;;;4.60;;
6898;SDS011;3488;42.616;23.350;2023-04-23T01:14:10;4.45;;;4.13;;
6898;SDS011;3488;42.616;23.350;2023-04-23T01:16:37;4.55;;;4.15;;
6898;SDS011;3488;42.616;23.350;2023-04-23T01:19:05;4.50;;;4.07;;
6898;SDS011;3488;42.616;23.350;2023-04-23T01:21:34;6.72;;;4.65;;
6898;SDS011;3488;42.616;23.350;2023-04-23T01:24:07;4.72;;;3.92;;
6898;SDS011;3488;42.616;23.350;2023-04-23T01:26:35;4.68;;;4.38;;
6898;SDS011;3488;42.616;23.350;2023-04-23T01:29:04;5.82;;;4.43;;
6898;SDS011;3488;42.616;23.350;2023-04-23T01:31:32;5.03;;;4.40;;
6898;SDS011;3488;42.616;23.350;2023-04-23T01:33:59;6.20;;;4.32;;
6898;SDS011;3488;42.616;23.350;2023-04-23T01:36:27;5.10;;;3.97;;
6898;SDS011;3488;42.616;23.350;2023-04-23T01:38:53;4.20;;;3.88;;
6898;SDS011;3488;42.616;23.350;2023-04-23T01:41:22;9.15;;;4.55;;
6898;SDS011;3488;42.616;23.350;2023-04-23T01:43:49;4.72;;;4.13;;
6898;SDS011;3488;42.616;23.350;2023-04-23T01:46:16;4.75;;;3.70;;
6898;SDS011;3488;42.616;23.350;2023-04-23T01:48:43;4.57;;;4.03;;
6898;SDS011;3488;42.616;23.350;2023-04-23T01:51:10;4.68;;;3.90;;
6898;SDS011;3488;42.616;23.350;2023-04-23T01:53:37;5.38;;;4.05;;
6898;SDS011;3488;42.616;23.350;2023-04-23T01:56:04;3.90;;;3.65;;
6898;SDS011;3488;42.616;23.350;2023-04-23T01:58:35;4.25;;;4.00;;
6898;SDS011;3488;42.616;23.350;2023-04-23T02:01:02;4.47;;;3.83;;
6898;SDS011;3488;42.616;23.350;2023-04-23T02:03:29;4.38;;;4.07;;
6898;SDS011;3488;42.616;23.350;2023-04-23T02:05:57;5.13;;;4.63;;
6898;SDS011;3488;42.616;23.350;2023-04-23T02:08:25;4.90;;;4.47;;
6898;SDS011;3488;42.616;23.350;2023-04-23T02:10:55;4.95;;;4.55;;
6898;SDS011;3488;42.616;23.350;2023-04-23T02:13:22;5.90;;;5.13;;
6898;SDS011;3488;42.616;23.350;2023-04-23T02:15:50;5.63;;;5.13;;
6898;SDS011;3488;42.616;23.350;2023-04-23T02:18:17;5.47;;;5.00;;
6898;SDS011;3488;42.616;23.350;2023-04-23T02:20:45;5.43;;;4.70;;
6898;SDS011;3488;42.616;23.350;2023-04-23T02:23:12;4.95;;;4.63;;
6898;SDS011;3488;42.616;23.350;2023-04-23T02:25:39;8.05;;;4.80;;
6898;SDS011;3488;42.616;23.350;2023-04-23T02:28:07;4.45;;;4.13;;
6898;SDS011;3488;42.616;23.350;2023-04-23T02:30:37;7.00;;;4.53;;
6898;SDS011;3488;42.616;23.350;2023-04-23T02:33:10;4.55;;;4.22;;
6898;SDS011;3488;42.616;23.350;2023-04-23T02:35:37;4.47;;;4.07;;
6898;SDS011;3488;42.616;23.350;2023-04-23T02:38:05;4.45;;;3.97;;
6898;SDS011;3488;42.616;23.350;2023-04-23T02:40:32;6.03;;;4.65;;
6898;SDS011;3488;42.616;23.350;2023-04-23T02:42:59;4.28;;;3.88;;
6898;SDS011;3488;42.616;23.350;2023-04-23T02:45:26;4.28;;;3.97;;
6898;SDS011;3488;42.616;23.350;2023-04-23T02:47:53;4.30;;;4.00;;
6898;SDS011;3488;42.616;23.350;2023-04-23T02:50:22;4.68;;;4.18;;
6898;SDS011;3488;42.616;23.350;2023-04-23T02:52:49;6.05;;;4.78;;
6898;SDS011;3488;42.616;23.350;2023-04-23T02:55:15;4.97;;;4.57;;
6898;SDS011;3488;42.616;23.350;2023-04-23T02:57:43;8.82;;;4.40;;
6898;SDS011;3488;42.616;23.350;2023-04-23T03:00:11;5.18;;;4.78;;
6898;SDS011;3488;42.616;23.350;2023-04-23T03:02:39;4.90;;;4.50;;
6898;SDS011;3488;42.616;23.350;2023-04-23T03:05:07;5.05;;;4.57;;
6898;SDS011;3488;42.616;23.350;2023-04-23T03:07:35;6.95;;;4.70;;
6898;SDS011;3488;42.616;23.350;2023-04-23T03:10:03;4.95;;;4.45;;
6898;SDS011;3488;42.616;23.350;2023-04-23T03:12:30;5.20;;;4.80;;
6898;SDS011;3488;42.616;23.350;2023-04-23T03:14:58;6.40;;;5.82;;
6898;SDS011;3488;42.616;23.350;2023-04-23T03:17:25;5.13;;;4.75;;
6898;SDS011;3488;42.616;23.350;2023-04-23T03:19:51;5.20;;;4.82;;
6898;SDS011;3488;42.616;23.350;2023-04-23T03:22:19;8.07;;;6.28;;
6898;SDS011;3488;42.616;23.350;2023-04-23T03:24:47;6.60;;;5.95;;
6898;SDS011;3488;42.616;23.350;2023-04-23T03:27:14;7.45;;;6.57;;
6898;SDS011;3488;42.616;23.350;2023-04-23T03:29:41;7.00;;;6.35;;
6898;SDS011;3488;42.616;23.350;2023-04-23T03:32:08;8.07;;;6.30;;
6898;SDS011;3488;42.616;23.350;2023-04-23T03:34:35;6.95;;;6.18;;
6898;SDS011;3488;42.616;23.350;2023-04-23T03:37:02;9.52;;;5.95;;
6898;SDS011;3488;42.616;23.350;2023-04-23T03:39:30;8.70;;;6.15;;
6898;SDS011;3488;42.616;23.350;2023-04-23T03:41:58;6.13;;;5.63;;
6898;SDS011;3488;42.616;23.350;2023-04-23T03:44:26;6.38;;;5.78;;
6898;SDS011;3488;42.616;23.350;2023-04-23T03:46:53;5.60;;;5.07;;
6898;SDS011;3488;42.616;23.350;2023-04-23T03:49:19;6.38;;;5.60;;
6898;SDS011;3488;42.616;23.350;2023-04-23T03:51:47;8.40;;;5.70;;
6898;SDS011;3488;42.616;23.350;2023-04-23T03:54:14;6.78;;;5.03;;
6898;SDS011;3488;42.616;23.350;2023-04-23T03:56:41;8.48;;;6.10;;
6898;SDS011;3488;42.616;23.350;2023-04-23T03:59:09;6.20;;;5.70;;
6898;SDS011;3488;42.616;23.350;2023-04-23T04:01:36;6.32;;;5.55;;
6898;SDS011;3488;42.616;23.350;2023-04-23T04:04:03;5.90;;;5.30;;
6898;SDS011;3488;42.616;23.350;2023-04-23T04:06:29;11.50;;;5.95;;
6898;SDS011;3488;42.616;23.350;2023-04-23T04:08:56;5.43;;;4.85;;
6898;SDS011;3488;42.616;23.350;2023-04-23T04:11:23;7.57;;;5.53;;
6898;SDS011;3488;42.616;23.350;2023-04-23T04:13:50;8.98;;;5.78;;
6898;SDS011;3488;42.616;23.350;2023-04-23T04:16:19;6.97;;;6.28;;
6898;SDS011;3488;42.616;23.350;2023-04-23T04:18:46;8.32;;;6.68;;
6898;SDS011;3488;42.616;23.350;2023-04-23T04:21:13;9.13;;;7.40;;
6898;SDS011;3488;42.616;23.350;2023-04-23T04:23:41;8.05;;;7.32;;
6898;SDS011;3488;42.616;23.350;2023-04-23T04:26:08;8.05;;;6.80;;
6898;SDS011;3488;42.616;23.350;2023-04-23T04:28:35;9.10;;;7.28;;
6898;SDS011;3488;42.616;23.350;2023-04-23T04:31:03;9.55;;;7.20;;
6898;SDS011;3488;42.616;23.350;2023-04-23T04:33:34;8.18;;;7.35;;
6898;SDS011;3488;42.616;23.350;2023-04-23T04:36:04;13.00;;;8.63;;
6898;SDS011;3488;42.616;23.350;2023-04-23T04:38:32;10.85;;;8.77;;
6898;SDS011;3488;42.616;23.350;2023-04-23T04:41:01;14.27;;;8.43;;
6898;SDS011;3488;42.616;23.350;2023-04-23T04:43:29;11.90;;;8.35;;
6898;SDS011;3488;42.616;23.350;2023-04-23T04:45:56;11.15;;;8.90;;
6898;SDS011;3488;42.616;23.350;2023-04-23T04:48:24;11.43;;;8.13;;
6898;SDS011;3488;42.616;23.350;2023-04-23T04:50:52;10.40;;;7.82;;
6898;SDS011;3488;42.616;23.350;2023-04-23T04:53:19;8.68;;;7.88;;
6898;SDS011;3488;42.616;23.350;2023-04-23T04:55:46;9.98;;;7.65;;
6898;SDS011;3488;42.616;23.350;2023-04-23T04:58:14;8.35;;;7.45;;
6898;SDS011;3488;42.616;23.350;2023-04-23T05:00:41;13.88;;;7.85;;
6898;SDS011;3488;42.616;23.350;2023-04-23T05:03:08;8.02;;;7.30;;
6898;SDS011;3488;42.616;23.350;2023-04-23T05:05:35;9.00;;;7.95;;
6898;SDS011;3488;42.616;23.350;2023-04-23T05:08:03;10.20;;;7.20;;
6898;SDS011;3488;42.616;23.350;2023-04-23T05:10:31;10.93;;;7.90;;
6898;SDS011;3488;42.616;23.350;2023-04-23T05:12:58;10.18;;;7.80;;
6898;SDS011;3488;42.616;23.350;2023-04-23T05:15:25;8.07;;;7.28;;
6898;SDS011;3488;42.616;23.350;2023-04-23T05:17:53;8.43;;;7.57;;
6898;SDS011;3488;42.616;23.350;2023-04-23T05:20:20;9.70;;;7.95;;
6898;SDS011;3488;42.616;23.350;2023-04-23T05:22:47;10.25;;;7.50;;
6898;SDS011;3488;42.616;23.350;2023-04-23T05:25:16;12.32;;;8.18;;
6898;SDS011;3488;42.616;23.350;2023-04-23T05:27:43;7.05;;;6.32;;
6898;SDS011;3488;42.616;23.350;2023-04-23T05:30:10;9.00;;;7.35;;
6898;SDS011;3488;42.616;23.350;2023-04-23T05:32:37;7.88;;;7.18;;
6898;SDS011;3488;42.616;23.350;2023-04-23T05:35:04;7.88;;;6.65;;
6898;SDS011;3488;42.616;23.350;2023-04-23T05:37:32;9.02;;;7.32;;
6898;SDS011;3488;42.616;23.350;2023-04-23T05:39:59;8.70;;;7.07;;
6898;SDS011;3488;42.616;23.350;2023-04-23T05:42:31;7.65;;;6.85;;
6898;SDS011;3488;42.616;23.350;2023-04-23T05:45:00;8.85;;;6.72;;
6898;SDS011;3488;42.616;23.350;2023-04-23T05:47:27;7.40;;;6.57;;
6898;SDS011;3488;42.616;23.350;2023-04-23T05:49:54;7.60;;;6.90;;
6898;SDS011;3488;42.616;23.350;2023-04-23T05:52:21;7.25;;;6.50;;
6898;SDS011;3488;42.616;23.350;2023-04-23T05:54:49;7.50;;;6.60;;
6898;SDS011;3488;42.616;23.350;2023-04-23T05:57:16;7.20;;;6.47;;
6898;SDS011;3488;42.616;23.350;2023-04-23T05:59:45;6.65;;;6.05;;
6898;SDS011;3488;42.616;23.350;2023-04-23T06:02:12;11.23;;;6.90;;
6898;SDS011;3488;42.616;23.350;2023-04-23T06:04:39;9.05;;;6.72;;
6898;SDS011;3488;42.616;23.350;2023-04-23T06:07:06;7.93;;;7.13;;
6898;SDS011;3488;42.616;23.350;2023-04-23T06:09:33;8.60;;;6.90;;
6898;SDS011;3488;42.616;23.350;2023-04-23T06:12:01;8.93;;;6.60;;
6898;SDS011;3488;42.616;23.350;2023-04-23T06:14:28;8.50;;;6.57;;
6898;SDS011;3488;42.616;23.350;2023-04-23T06:16:56;10.50;;;6.55;;
6898;SDS011;3488;42.616;23.350;2023-04-23T06:19:24;8.07;;;6.53;;
6898;SDS011;3488;42.616;23.350;2023-04-23T06:21:51;7.53;;;6.72;;
6898;SDS011;3488;42.616;23.350;2023-04-23T06:24:19;9.88;;;6.53;;
6898;SDS011;3488;42.616;23.350;2023-04-23T06:26:46;8.10;;;6.68;;
6898;SDS011;3488;42.616;23.350;2023-04-23T06:29:13;10.65;;;7.05;;
6898;SDS011;3488;42.616;23.350;2023-04-23T06:31:39;8.35;;;7.35;;
6898;SDS011;3488;42.616;23.350;2023-04-23T06:34:08;8.25;;;7.00;;
6898;SDS011;3488;42.616;23.350;2023-04-23T06:36:36;9.02;;;7.10;;
6898;SDS011;3488;42.616;23.350;2023-04-23T06:39:03;11.45;;;7.25;;
6898;SDS011;3488;42.616;23.350;2023-04-23T06:41:30;9.13;;;7.55;;
6898;SDS011;3488;42.616;23.350;2023-04-23T06:43:56;7.43;;;6.65;;
6898;SDS011;3488;42.616;23.350;2023-04-23T06:46:23;8.85;;;7.60;;
6898;SDS011;3488;42.616;23.350;2023-04-23T06:48:50;10.05;;;7.13;;
6898;SDS011;3488;42.616;23.350;2023-04-23T06:51:19;9.20;;;7.35;;
6898;SDS011;3488;42.616;23.350;2023-04-23T06:53:46;8.15;;;7.20;;
6898;SDS011;3488;42.616;23.350;2023-04-23T06:56:13;8.13;;;7.32;;
6898;SDS011;3488;42.616;23.350;2023-04-23T06:58:40;10.98;;;8.02;;
6898;SDS011;3488;42.616;23.350;2023-04-23T07:01:07;7.72;;;7.03;;
6898;SDS011;3488;42.616;23.350;2023-04-23T07:03:35;10.23;;;6.70;;
6898;SDS011;3488;42.616;23.350;2023-04-23T07:06:02;9.75;;;6.80;;
6898;SDS011;3488;42.616;23.350;2023-04-23T07:08:31;7.35;;;5.90;;
6898;SDS011;3488;42.616;23.350;2023-04-23T07:10:58;7.75;;;6.90;;
6898;SDS011;3488;42.616;23.350;2023-04-23T07:13:25;8.32;;;7.20;;
6898;SDS011;3488;42.616;23.350;2023-04-23T07:15:52;11.18;;;7.13;;
6898;SDS011;3488;42.616;23.350;2023-04-23T07:18:19;9.25;;;7.07;;
6898;SDS011;3488;42.616;23.350;2023-04-23T07:20:46;9.68;;;8.32;;
6898;SDS011;3488;42.616;23.350;2023-04-23T07:23:13;7.70;;;6.88;;
6898;SDS011;3488;42.616;23.350;2023-04-23T07:25:42;9.70;;;6.80;;
6898;SDS011;3488;42.616;23.350;2023-04-23T07:28:09;9.10;;;6.63;;
6898;SDS011;3488;42.616;23.350;2023-04-23T07:30:37;7.75;;;7.00;;
6898;SDS011;3488;42.616;23.350;2023-04-23T07:33:04;9.60;;;7.22;;
6898;SDS011;3488;42.616;23.350;2023-04-23T07:35:31;8.82;;;6.75;;
6898;SDS011;3488;42.616;23.350;2023-04-23T07:37:57;7.35;;;6.65;;
6898;SDS011;3488;42.616;23.350;2023-04-23T07:40:24;7.85;;;6.90;;
6898;SDS011;3488;42.616;23.350;2023-04-23T07:42:53;12.85;;;7.25;;
6898;SDS011;3488;42.616;23.350;2023-04-23T07:45:22;6.80;;;6.20;;
6898;SDS011;3488;42.616;23.350;2023-04-23T07:47:49;8.70;;;7.18;;
6898;SDS011;3488;42.616;23.350;2023-04-23T07:50:16;7.40;;;6.70;;
6898;SDS011;3488;42.616;23.350;2023-04-23T07:52:44;7.47;;;6.78;;
6898;SDS011;3488;42.616;23.350;2023-04-23T07:55:11;7.35;;;6.75;;
6898;SDS011;3488;42.616;23.350;2023-04-23T07:57:38;6.88;;;6.25;;
6898;SDS011;3488;42.616;23.350;2023-04-23T08:00:08;8.02;;;6.22;;
6898;SDS011;3488;42.616;23.350;2023-04-23T08:02:36;6.75;;;6.15;;
6898;SDS011;3488;42.616;23.350;2023-04-23T08:05:03;13.15;;;6.50;;
6898;SDS011;3488;42.616;23.350;2023-04-23T08:07:31;6.50;;;5.82;;
6898;SDS011;3488;42.616;23.350;2023-04-23T08:10:05;14.57;;;6.60;;
6898;SDS011;3488;42.616;23.350;2023-04-23T08:12:33;7.68;;;6.10;;
6898;SDS011;3488;42.616;23.350;2023-04-23T08:15:00;6.85;;;6.28;;
6898;SDS011;3488;42.616;23.350;2023-04-23T08:17:29;8.93;;;8.00;;
6898;SDS011;3488;42.616;23.350;2023-04-23T08:19:56;8.35;;;7.20;;
6898;SDS011;3488;42.616;23.350;2023-04-23T08:22:23;10.55;;;6.18;;
6898;SDS011;3488;42.616;23.350;2023-04-23T08:24:50;8.23;;;6.30;;
6898;SDS011;3488;42.616;23.350;2023-04-23T08:27:17;8.13;;;6.30;;
6898;SDS011;3488;42.616;23.350;2023-04-23T08:29:44;7.47;;;6.70;;
6898;SDS011;3488;42.616;23.350;2023-04-23T08:32:14;7.25;;;6.65;;
6898;SDS011;3488;42.616;23.350;2023-04-23T08:34:42;9.00;;;6.68;;
6898;SDS011;3488;42.616;23.350;2023-04-23T08:37:09;8.07;;;6.63;;
6898;SDS011;3488;42.616;23.350;2023-04-23T08:39:37;7.32;;;6.63;;
6898;SDS011;3488;42.616;23.350;2023-04-23T08:42:07;7.50;;;6.32;;
6898;SDS011;3488;42.616;23.350;2023-04-23T08:44:37;8.00;;;6.55;;
6898;SDS011;3488;42.616;23.350;2023-04-23T08:47:07;11.73;;;6.85;;
6898;SDS011;3488;42.616;23.350;2023-04-23T08:49:37;7.72;;;6.18;;
6898;SDS011;3488;42.616;23.350;2023-04-23T08:52:13;6.43;;;5.82;;
6898;SDS011;3488;42.616;23.350;2023-04-23T08:54:44;7.25;;;5.45;;
6898;SDS011;3488;42.616;23.350;2023-04-23T08:57:15;7.30;;;6.32;;
6898;SDS011;3488;42.616;23.350;2023-04-23T08:59:43;7.10;;;6.53;;
6898;SDS011;3488;42.616;23.350;2023-04-23T09:02:11;7.60;;;6.30;;
6898;SDS011;3488;42.616;23.350;2023-04-23T09:04:39;7.85;;;6.20;;
6898;SDS011;3488;42.616;23.350;2023-04-23T09:07:10;7.18;;;6.47;;
6898;SDS011;3488;42.616;23.350;2023-04-23T09:09:39;8.25;;;7.10;;
6898;SDS011;3488;42.616;23.350;2023-04-23T09:12:06;7.43;;;6.57;;
6898;SDS011;3488;42.616;23.350;2023-04-23T09:14:34;7.20;;;6.57;;
6898;SDS011;3488;42.616;23.350;2023-04-23T09:17:02;9.57;;;6.97;;
6898;SDS011;3488;42.616;23.350;2023-04-23T09:19:29;8.85;;;7.07;;
6898;SDS011;3488;42.616;23.350;2023-04-23T09:21:58;7.07;;;6.47;;
6898;SDS011;3488;42.616;23.350;2023-04-23T09:24:26;6.95;;;6.25;;
6898;SDS011;3488;42.616;23.350;2023-04-23T09:26:55;6.47;;;5.88;;
6898;SDS011;3488;42.616;23.350;2023-04-23T09:29:23;7.72;;;6.90;;
6898;SDS011;3488;42.616;23.350;2023-04-23T09:31:52;6.85;;;6.35;;
6898;SDS011;3488;42.616;23.350;2023-04-23T09:34:20;7.22;;;6.38;;
6898;SDS011;3488;42.616;23.350;2023-04-23T09:36:49;8.15;;;6.88;;
6898;SDS011;3488;42.616;23.350;2023-04-23T09:39:20;6.72;;;5.97;;
6898;SDS011;3488;42.616;23.350;2023-04-23T09:41:50;6.68;;;6.07;;
6898;SDS011;3488;42.616;23.350;2023-04-23T09:44:17;6.57;;;5.93;;
6898;SDS011;3488;42.616;23.350;2023-04-23T09:46:46;6.22;;;5.63;;
6898;SDS011;3488;42.616;23.350;2023-04-23T09:49:14;7.43;;;5.70;;
6898;SDS011;3488;42.616;23.350;2023-04-23T09:51:41;9.05;;;5.65;;
6898;SDS011;3488;42.616;23.350;2023-04-23T09:54:10;7.15;;;6.28;;
6898;SDS011;3488;42.616;23.350;2023-04-23T09:56:40;8.52;;;6.60;;
6898;SDS011;3488;42.616;23.350;2023-04-23T09:59:21;6.53;;;5.47;;
6898;SDS011;3488;42.616;23.350;2023-04-23T10:01:49;6.80;;;6.13;;
6898;SDS011;3488;42.616;23.350;2023-04-23T10:04:17;7.00;;;6.22;;
6898;SDS011;3488;42.616;23.350;2023-04-23T10:06:47;6.70;;;6.18;;
6898;SDS011;3488;42.616;23.350;2023-04-23T10:09:14;6.43;;;5.85;;
6898;SDS011;3488;42.616;23.350;2023-04-23T10:11:43;6.40;;;5.30;;
6898;SDS011;3488;42.616;23.350;2023-04-23T10:14:10;6.35;;;5.75;;
6898;SDS011;3488;42.616;23.350;2023-04-23T10:16:38;6.47;;;5.40;;
6898;SDS011;3488;42.616;23.350;2023-04-23T10:19:06;8.55;;;5.68;;
6898;SDS011;3488;42.616;23.350;2023-04-23T10:21:38;7.15;;;5.68;;
6898;SDS011;3488;42.616;23.350;2023-04-23T10:24:06;5.57;;;5.00;;
6898;SDS011;3488;42.616;23.350;2023-04-23T10:26:36;6.38;;;5.88;;
6898;SDS011;3488;42.616;23.350;2023-04-23T10:29:11;7.57;;;5.72;;
6898;SDS011;3488;42.616;23.350;2023-04-23T10:31:40;6.07;;;5.47;;
6898;SDS011;3488;42.616;23.350;2023-04-23T10:34:08;6.32;;;5.68;;
6898;SDS011;3488;42.616;23.350;2023-04-23T10:36:39;5.95;;;5.38;;
6898;SDS011;3488;42.616;23.350;2023-04-23T10:39:06;6.35;;;5.78;;
6898;SDS011;3488;42.616;23.350;2023-04-23T10:41:34;5.88;;;5.13;;
6898;SDS011;3488;42.616;23.350;2023-04-23T10:44:04;7.28;;;5.30;;
6898;SDS011;3488;42.616;23.350;2023-04-23T10:46:33;6.10;;;5.50;;
6898;SDS011;3488;42.616;23.350;2023-04-23T10:49:04;6.30;;;5.80;;
6898;SDS011;3488;42.616;23.350;2023-04-23T10:51:33;5.93;;;5.35;;
6898;SDS011;3488;42.616;23.350;2023-04-23T10:54:01;5.53;;;4.93;;
6898;SDS011;3488;42.616;23.350;2023-04-23T10:56:29;5.90;;;5.10;;
6898;SDS011;3488;42.616;23.350;2023-04-23T10:58:57;6.75;;;5.00;;
6898;SDS011;3488;42.616;23.350;2023-04-23T11:01:25;5.78;;;5.35;;
6898;SDS011;3488;42.616;23.350;2023-04-23T11:03:55;5.72;;;5.32;;
6898;SDS011;3488;42.616;23.350;2023-04-23T11:12:09;5.55;;;5.15;;
6898;SDS011;3488;42.616;23.350;2023-04-23T11:14:41;7.57;;;5.15;;
6898;SDS011;3488;42.616;23.350;2023-04-23T11:17:11;5.38;;;4.90;;
6898;SDS011;3488;42.616;23.350;2023-04-23T11:19:43;8.68;;;5.07;;
6898;SDS011;3488;42.616;23.350;2023-04-23T11:22:34;5.05;;;4.65;;
6898;SDS011;3488;42.616;23.350;2023-04-23T11:25:03;5.43;;;5.00;;
6898;SDS011;3488;42.616;23.350;2023-04-23T11:27:34;6.32;;;5.57;;
6898;SDS011;3488;42.616;23.350;2023-04-23T11:30:04;6.05;;;4.95;;
6898;SDS011;3488;42.616;23.350;2023-04-23T11:32:37;4.82;;;4.25;;
6898;SDS011;3488;42.616;23.350;2023-04-23T11:35:08;5.57;;;4.70;;
6898;SDS011;3488;42.616;23.350;2023-04-23T11:37:37;5.05;;;4.60;;
6898;SDS011;3488;42.616;23.350;2023-04-23T11:40:06;4.90;;;4.55;;
6898;SDS011;3488;42.616;23.350;2023-04-23T11:42:39;5.35;;;4.82;;
6898;SDS011;3488;42.616;23.350;2023-04-23T11:45:14;5.18;;;4.72;;
6898;SDS011;3488;42.616;23.350;2023-04-23T11:47:42;5.35;;;4.65;;
6898;SDS011;3488;42.616;23.350;2023-04-23T11:50:11;5.25;;;4.30;;
6898;SDS011;3488;42.616;23.350;2023-04-23T11:52:43;4.45;;;3.97;;
6898;SDS011;3488;42.616;23.350;2023-04-23T11:55:10;4.18;;;3.88;;
6898;SDS011;3488;42.616;23.350;2023-04-23T11:57:40;4.75;;;4.47;;
6898;SDS011;3488;42.616;23.350;2023-04-23T12:00:12;4.97;;;3.67;;
6898;SDS011;3488;42.616;23.350;2023-04-23T12:02:51;5.13;;;3.72;;
6898;SDS011;3488;42.616;23.350;2023-04-23T12:05:27;4.57;;;3.70;;
6898;SDS011;3488;42.616;23.350;2023-04-23T12:08:04;4.10;;;3.90;;
6898;SDS011;3488;42.616;23.350;2023-04-23T12:10:40;3.53;;;3.22;;
6898;SDS011;3488;42.616;23.350;2023-04-23T12:13:12;3.45;;;3.25;;
6898;SDS011;3488;42.616;23.350;2023-04-23T12:15:43;4.57;;;3.45;;
6898;SDS011;3488;42.616;23.350;2023-04-23T12:18:11;3.72;;;3.47;;
6898;SDS011;3488;42.616;23.350;2023-04-23T12:20:39;4.72;;;3.45;;
6898;SDS011;3488;42.616;23.350;2023-04-23T12:23:06;4.18;;;3.88;;
6898;SDS011;3488;42.616;23.350;2023-04-23T12:25:33;4.07;;;3.72;;
6898;SDS011;3488;42.616;23.350;2023-04-23T12:28:01;3.10;;;2.90;;
6898;SDS011;3488;42.616;23.350;2023-04-23T12:30:31;4.32;;;3.92;;
6898;SDS011;3488;42.616;23.350;2023-04-23T12:33:00;4.00;;;3.80;;
6898;SDS011;3488;42.616;23.350;2023-04-23T12:35:37;4.53;;;4.20;;
6898;SDS011;3488;42.616;23.350;2023-04-23T12:38:08;4.20;;;3.83;;
6898;SDS011;3488;42.616;23.350;2023-04-23T12:40:48;3.92;;;3.63;;
6898;SDS011;3488;42.616;23.350;2023-04-23T12:43:16;3.92;;;3.55;;
6898;SDS011;3488;42.616;23.350;2023-04-23T12:45:43;3.50;;;3.30;;
6898;SDS011;3488;42.616;23.350;2023-04-23T12:48:10;4.07;;;3.88;;
6898;SDS011;3488;42.616;23.350;2023-04-23T12:50:39;3.83;;;3.60;;
6898;SDS011;3488;42.616;23.350;2023-04-23T12:53:07;3.53;;;3.33;;
6898;SDS011;3488;42.616;23.350;2023-04-23T12:55:35;4.45;;;4.05;;
6898;SDS011;3488;42.616;23.350;2023-04-23T12:58:03;4.25;;;3.85;;
6898;SDS011;3488;42.616;23.350;2023-04-23T13:00:31;5.72;;;3.80;;
6898;SDS011;3488;42.616;23.350;2023-04-23T13:02:58;3.88;;;3.58;;
6898;SDS011;3488;42.616;23.350;2023-04-23T13:05:25;3.90;;;3.58;;
6898;SDS011;3488;42.616;23.350;2023-04-23T13:07:54;3.90;;;3.67;;
6898;SDS011;3488;42.616;23.350;2023-04-23T13:10:21;4.18;;;3.90;;
6898;SDS011;3488;42.616;23.350;2023-04-23T13:12:48;4.32;;;4.03;;
6898;SDS011;3488;42.616;23.350;2023-04-23T13:15:15;4.20;;;3.88;;
6898;SDS011;3488;42.616;23.350;2023-04-23T13:17:43;4.03;;;3.80;;
6898;SDS011;3488;42.616;23.350;2023-04-23T13:20:11;4.18;;;3.80;;
6898;SDS011;3488;42.616;23.350;2023-04-23T13:22:38;3.83;;;3.63;;
6898;SDS011;3488;42.616;23.350;2023-04-23T13:25:07;4.30;;;3.95;;
6898;SDS011;3488;42.616;23.350;2023-04-23T13:27:35;4.60;;;3.28;;
6898;SDS011;3488;42.616;23.350;2023-04-23T13:30:02;3.88;;;3.65;;
6898;SDS011;3488;42.616;23.350;2023-04-23T13:32:30;5.20;;;3.65;;
6898;SDS011;3488;42.616;23.350;2023-04-23T13:34:57;3.42;;;3.33;;
6898;SDS011;3488;42.616;23.350;2023-04-23T13:37:28;4.10;;;3.70;;
6898;SDS011;3488;42.616;23.350;2023-04-23T13:39:55;4.32;;;3.97;;
6898;SDS011;3488;42.616;23.350;2023-04-23T13:42:24;3.97;;;3.67;;
6898;SDS011;3488;42.616;23.350;2023-04-23T13:44:51;4.05;;;3.75;;
6898;SDS011;3488;42.616;23.350;2023-04-23T13:47:18;4.72;;;3.88;;
6898;SDS011;3488;42.616;23.350;2023-04-23T13:49:45;4.28;;;3.80;;
6898;SDS011;3488;42.616;23.350;2023-04-23T13:52:12;3.85;;;3.63;;
6898;SDS011;3488;42.616;23.350;2023-04-23T13:54:39;3.78;;;3.58;;
6898;SDS011;3488;42.616;23.350;2023-04-23T13:57:06;3.90;;;3.70;;
6898;SDS011;3488;42.616;23.350;2023-04-23T13:59:35;4.03;;;3.65;;
6898;SDS011;3488;42.616;23.350;2023-04-23T14:02:02;3.92;;;3.47;;
6898;SDS011;3488;42.616;23.350;2023-04-23T14:04:29;4.63;;;3.65;;
6898;SDS011;3488;42.616;23.350;2023-04-23T14:06:56;6.15;;;4.47;;
6898;SDS011;3488;42.616;23.350;2023-04-23T14:09:24;4.00;;;3.28;;
6898;SDS011;3488;42.616;23.350;2023-04-23T14:11:51;3.38;;;3.08;;
6898;SDS011;3488;42.616;23.350;2023-04-23T14:14:18;3.17;;;2.97;;
6898;SDS011;3488;42.616;23.350;2023-04-23T14:16:46;4.53;;;4.22;;
6898;SDS011;3488;42.616;23.350;2023-04-23T14:19:14;4.20;;;3.80;;
6898;SDS011;3488;42.616;23.350;2023-04-23T14:21:41;4.10;;;3.80;;
6898;SDS011;3488;42.616;23.350;2023-04-23T14:24:15;5.15;;;4.30;;
6898;SDS011;3488;42.616;23.350;2023-04-23T14:26:43;3.60;;;3.40;;
6898;SDS011;3488;42.616;23.350;2023-04-23T14:29:17;3.80;;;3.28;;
6898;SDS011;3488;42.616;23.350;2023-04-23T14:31:50;3.78;;;3.58;;
6898;SDS011;3488;42.616;23.350;2023-04-23T14:34:17;3.95;;;3.58;;
6898;SDS011;3488;42.616;23.350;2023-04-23T14:36:45;3.65;;;3.42;;
6898;SDS011;3488;42.616;23.350;2023-04-23T14:39:13;4.35;;;3.50;;
6898;SDS011;3488;42.616;23.350;2023-04-23T14:41:40;3.75;;;2.95;;
6898;SDS011;3488;42.616;23.350;2023-04-23T14:44:07;5.72;;;3.38;;
6898;SDS011;3488;42.616;23.350;2023-04-23T14:46:35;4.03;;;3.75;;
6898;SDS011;3488;42.616;23.350;2023-04-23T14:49:03;4.55;;;4.18;;
6898;SDS011;3488;42.616;23.350;2023-04-23T14:51:31;4.72;;;4.28;;
6898;SDS011;3488;42.616;23.350;2023-04-23T14:53:58;8.30;;;6.35;;
6898;SDS011;3488;42.616;23.350;2023-04-23T14:56:25;5.15;;;3.80;;
6898;SDS011;3488;42.616;23.350;2023-04-23T14:58:52;4.25;;;3.60;;
6898;SDS011;3488;42.616;23.350;2023-04-23T15:01:20;4.05;;;3.67;;
6898;SDS011;3488;42.616;23.350;2023-04-23T15:03:47;3.92;;;3.63;;
6898;SDS011;3488;42.616;23.350;2023-04-23T15:06:16;4.28;;;3.88;;
6898;SDS011;3488;42.616;23.350;2023-04-23T15:08:44;3.70;;;3.40;;
6898;SDS011;3488;42.616;23.350;2023-04-23T15:11:11;9.93;;;5.00;;